QTR906A YSSY-YSCB
Flight info
| Callsign | QTR906A |
|---|---|
| Flight time | 0h 36m |
| Altitude | 20000 |
| Route | TESAT H65 CB |
| Aircraft | A35K/H-SDE2E3GHIJ3J4J5LM1ORWXY/LB1D1 |
Departure
| Time | 2026-05-06 20:09 |
|---|---|
| Airport | Sydney Kingsford Smith International Airport (YSSY) |
Arrival
| Time | 2026-05-06 20:46 |
|---|---|
| Airport | Canberra Airport (YSCB) |
| Time | Latitude | Longitude | Altitude | Speed | Heading |
|---|---|---|---|---|---|
| 2026-05-06 19:41 | -33.93793 | 151.16961 | 36 ft | 0 kts | 254° |
| 2026-05-06 19:59 | -33.93792 | 151.16966 | 36 ft | 3 kts | 252° |
| 2026-05-06 19:59 | -33.93781 | 151.16994 | 36 ft | 4 kts | 232° |
| 2026-05-06 19:59 | -33.93767 | 151.17019 | 32 ft | 4 kts | 268° |
| 2026-05-06 19:59 | -33.93771 | 151.17042 | 33 ft | 4 kts | 298° |
| 2026-05-06 20:00 | -33.93788 | 151.17064 | 36 ft | 4 kts | 339° |
| 2026-05-06 20:00 | -33.93814 | 151.17071 | 35 ft | 4 kts | 354° |
| 2026-05-06 20:00 | -33.93828 | 151.17073 | 35 ft | 0 kts | 348° |
| 2026-05-06 20:04 | -33.93822 | 151.17072 | 36 ft | 3 kts | 349° |
| 2026-05-06 20:04 | -33.93781 | 151.17060 | 36 ft | 7 kts | 347° |
| 2026-05-06 20:05 | -33.93725 | 151.17081 | 36 ft | 10 kts | 44° |
| 2026-05-06 20:05 | -33.93667 | 151.17129 | 35 ft | 10 kts | 18° |
| 2026-05-06 20:05 | -33.93594 | 151.17128 | 35 ft | 12 kts | 349° |
| 2026-05-06 20:05 | -33.93492 | 151.17106 | 35 ft | 17 kts | 350° |
| 2026-05-06 20:06 | -33.93386 | 151.17071 | 36 ft | 14 kts | 336° |
| 2026-05-06 20:06 | -33.93312 | 151.17017 | 36 ft | 13 kts | 326° |
| 2026-05-06 20:06 | -33.93223 | 151.16952 | 36 ft | 16 kts | 340° |
| 2026-05-06 20:06 | -33.93113 | 151.16920 | 36 ft | 12 kts | 348° |
| 2026-05-06 20:07 | -33.93039 | 151.16908 | 36 ft | 9 kts | 1° |
| 2026-05-06 20:07 | -33.92990 | 151.16934 | 36 ft | 9 kts | 48° |
| 2026-05-06 20:07 | -33.92971 | 151.17007 | 36 ft | 7 kts | 78° |
| 2026-05-06 20:07 | -33.92960 | 151.17067 | 37 ft | 9 kts | 78° |
| 2026-05-06 20:08 | -33.92959 | 151.17132 | 37 ft | 5 kts | 105° |
| 2026-05-06 20:08 | -33.92989 | 151.17170 | 36 ft | 9 kts | 152° |
| 2026-05-06 20:08 | -33.93006 | 151.17176 | 36 ft | 0 kts | 166° |
| 2026-05-06 20:08 | -33.93009 | 151.17177 | 36 ft | 6 kts | 166° |
| 2026-05-06 20:09 | -33.93303 | 151.17255 | 36 ft | 92 kts | 168° |
| 2026-05-06 20:09 | -33.94225 | 151.17497 | 106 ft | 169 kts | 169° |
| 2026-05-06 20:09 | -33.95401 | 151.17844 | 1016 ft | 176 kts | 171° |
| 2026-05-06 20:09 | -33.96626 | 151.18180 | 2024 ft | 189 kts | 177° |
| 2026-05-06 20:10 | -33.98015 | 151.18191 | 2575 ft | 210 kts | 197° |
| 2026-05-06 20:10 | -33.99467 | 151.17865 | 3477 ft | 221 kts | 198° |
| 2026-05-06 20:10 | -34.01047 | 151.17589 | 4445 ft | 238 kts | 190° |
| 2026-05-06 20:10 | -34.02766 | 151.17574 | 5293 ft | 257 kts | 178° |
| 2026-05-06 20:11 | -34.04570 | 151.18029 | 5819 ft | 270 kts | 169° |
| 2026-05-06 20:11 | -34.06404 | 151.18664 | 6391 ft | 279 kts | 167° |
| 2026-05-06 20:11 | -34.08294 | 151.19327 | 7495 ft | 285 kts | 168° |
| 2026-05-06 20:11 | -34.10215 | 151.19987 | 8764 ft | 290 kts | 168° |
| 2026-05-06 20:12 | -34.12186 | 151.20661 | 9982 ft | 298 kts | 168° |
| 2026-05-06 20:12 | -34.14215 | 151.21343 | 10893 ft | 317 kts | 169° |
| 2026-05-06 20:12 | -34.16397 | 151.22049 | 11861 ft | 329 kts | 171° |
| 2026-05-06 20:12 | -34.18674 | 151.22305 | 12997 ft | 328 kts | 191° |
| 2026-05-06 20:13 | -34.20828 | 151.21568 | 14148 ft | 319 kts | 214° |
| 2026-05-06 20:13 | -34.22568 | 151.19975 | 15181 ft | 313 kts | 232° |
| 2026-05-06 20:13 | -34.24015 | 151.18004 | 16236 ft | 315 kts | 236° |
| 2026-05-06 20:13 | -34.25437 | 151.15963 | 17305 ft | 320 kts | 237° |
| 2026-05-06 20:14 | -34.26875 | 151.13918 | 18393 ft | 325 kts | 237° |
| 2026-05-06 20:14 | -34.28350 | 151.11822 | 19223 ft | 330 kts | 237° |
| 2026-05-06 20:14 | -34.29846 | 151.09698 | 19753 ft | 333 kts | 237° |
| 2026-05-06 20:14 | -34.31357 | 151.07560 | 19970 ft | 333 kts | 237° |
| 2026-05-06 20:15 | -34.32856 | 151.05450 | 20003 ft | 330 kts | 237° |
| 2026-05-06 20:15 | -34.34346 | 151.03348 | 19996 ft | 329 kts | 237° |
| 2026-05-06 20:15 | -34.35834 | 151.01247 | 19996 ft | 328 kts | 237° |
| 2026-05-06 20:15 | -34.37364 | 150.99191 | 19996 ft | 331 kts | 232° |
| 2026-05-06 20:16 | -34.39058 | 150.97276 | 19996 ft | 334 kts | 230° |
| 2026-05-06 20:16 | -34.40766 | 150.95432 | 19997 ft | 334 kts | 230° |
| 2026-05-06 20:16 | -34.42497 | 150.93563 | 19990 ft | 334 kts | 230° |
| 2026-05-06 20:16 | -34.44229 | 150.91689 | 19976 ft | 334 kts | 230° |
| 2026-05-06 20:17 | -34.45957 | 150.89814 | 19989 ft | 334 kts | 230° |
| 2026-05-06 20:17 | -34.47688 | 150.87935 | 19976 ft | 333 kts | 230° |
| 2026-05-06 20:17 | -34.49414 | 150.86059 | 20020 ft | 334 kts | 230° |
| 2026-05-06 20:17 | -34.51142 | 150.84179 | 19990 ft | 334 kts | 230° |
| 2026-05-06 20:18 | -34.52853 | 150.82318 | 19988 ft | 335 kts | 230° |
| 2026-05-06 20:18 | -34.54588 | 150.80428 | 19987 ft | 335 kts | 230° |
| 2026-05-06 20:18 | -34.56213 | 150.78440 | 19989 ft | 329 kts | 237° |
| 2026-05-06 20:18 | -34.57659 | 150.76304 | 19983 ft | 326 kts | 240° |
| 2026-05-06 20:19 | -34.58969 | 150.74161 | 19963 ft | 325 kts | 241° |
| 2026-05-06 20:19 | -34.60278 | 150.71920 | 19991 ft | 326 kts | 242° |
| 2026-05-06 20:19 | -34.61565 | 150.69698 | 19998 ft | 326 kts | 242° |
| 2026-05-06 20:19 | -34.62879 | 150.67447 | 19977 ft | 327 kts | 242° |
| 2026-05-06 20:20 | -34.64202 | 150.65206 | 19986 ft | 327 kts | 241° |
| 2026-05-06 20:20 | -34.65534 | 150.62972 | 19994 ft | 327 kts | 241° |
| 2026-05-06 20:20 | -34.66875 | 150.60736 | 19995 ft | 327 kts | 241° |
| 2026-05-06 20:20 | -34.68216 | 150.58506 | 19988 ft | 327 kts | 241° |
| 2026-05-06 20:21 | -34.69558 | 150.56275 | 19985 ft | 327 kts | 241° |
| 2026-05-06 20:21 | -34.70903 | 150.54040 | 19988 ft | 327 kts | 241° |
| 2026-05-06 20:21 | -34.72223 | 150.51842 | 19991 ft | 327 kts | 241° |
| 2026-05-06 20:21 | -34.73566 | 150.49605 | 19996 ft | 327 kts | 241° |
| 2026-05-06 20:22 | -34.74909 | 150.47365 | 19993 ft | 327 kts | 241° |
| 2026-05-06 20:22 | -34.76246 | 150.45134 | 19997 ft | 327 kts | 241° |
| 2026-05-06 20:22 | -34.77586 | 150.42897 | 19997 ft | 327 kts | 241° |
| 2026-05-06 20:22 | -34.78926 | 150.40663 | 20000 ft | 327 kts | 241° |
| 2026-05-06 20:23 | -34.80264 | 150.38425 | 20009 ft | 327 kts | 241° |
| 2026-05-06 20:23 | -34.81599 | 150.36186 | 20007 ft | 327 kts | 242° |
| 2026-05-06 20:23 | -34.82936 | 150.33944 | 19999 ft | 327 kts | 241° |
| 2026-05-06 20:23 | -34.84256 | 150.31729 | 20002 ft | 328 kts | 242° |
| 2026-05-06 20:24 | -34.85596 | 150.29477 | 20001 ft | 328 kts | 242° |
| 2026-05-06 20:24 | -34.86929 | 150.27235 | 20008 ft | 327 kts | 242° |
| 2026-05-06 20:24 | -34.88265 | 150.24989 | 19999 ft | 327 kts | 242° |
| 2026-05-06 20:24 | -34.89606 | 150.22756 | 19999 ft | 326 kts | 241° |
| 2026-05-06 20:25 | -34.90943 | 150.20520 | 20003 ft | 327 kts | 242° |
| 2026-05-06 20:25 | -34.92276 | 150.18274 | 20001 ft | 327 kts | 242° |
| 2026-05-06 20:25 | -34.93589 | 150.16056 | 20008 ft | 326 kts | 242° |
| 2026-05-06 20:25 | -34.94915 | 150.13816 | 19999 ft | 325 kts | 242° |
| 2026-05-06 20:26 | -34.96241 | 150.11574 | 19997 ft | 325 kts | 242° |
| 2026-05-06 20:26 | -34.97564 | 150.09340 | 20015 ft | 325 kts | 243° |
| 2026-05-06 20:26 | -34.98883 | 150.07108 | 19998 ft | 325 kts | 243° |
| 2026-05-06 20:26 | -35.00185 | 150.04900 | 20005 ft | 325 kts | 243° |
| 2026-05-06 20:27 | -35.01513 | 150.02669 | 20010 ft | 325 kts | 242° |
| 2026-05-06 20:27 | -35.02840 | 150.00437 | 20003 ft | 325 kts | 243° |
| 2026-05-06 20:27 | -35.04159 | 149.98203 | 19935 ft | 327 kts | 243° |
| 2026-05-06 20:27 | -35.05336 | 149.95822 | 19673 ft | 325 kts | 251° |
| 2026-05-06 20:28 | -35.06260 | 149.93339 | 19179 ft | 317 kts | 254° |
| 2026-05-06 20:28 | -35.07069 | 149.90868 | 18731 ft | 311 kts | 256° |
| 2026-05-06 20:28 | -35.07803 | 149.88446 | 18270 ft | 306 kts | 257° |
| 2026-05-06 20:28 | -35.08515 | 149.86014 | 17786 ft | 300 kts | 257° |
| 2026-05-06 20:29 | -35.09206 | 149.83634 | 17344 ft | 295 kts | 257° |
| 2026-05-06 20:29 | -35.09891 | 149.81285 | 16913 ft | 292 kts | 257° |
| 2026-05-06 20:29 | -35.10573 | 149.78963 | 16517 ft | 290 kts | 257° |
| 2026-05-06 20:29 | -35.11255 | 149.76662 | 16056 ft | 286 kts | 257° |
| 2026-05-06 20:30 | -35.11923 | 149.74417 | 15630 ft | 283 kts | 257° |
| 2026-05-06 20:30 | -35.13260 | 149.69933 | 14801 ft | 279 kts | 257° |
| 2026-05-06 20:30 | -35.13920 | 149.67722 | 14387 ft | 276 kts | 256° |
| 2026-05-06 20:31 | -35.14576 | 149.65522 | 13973 ft | 274 kts | 256° |
| 2026-05-06 20:31 | -35.15225 | 149.63347 | 13535 ft | 271 kts | 256° |
| 2026-05-06 20:31 | -35.15869 | 149.61188 | 13105 ft | 270 kts | 256° |
| 2026-05-06 20:31 | -35.16506 | 149.59041 | 12702 ft | 268 kts | 256° |
| 2026-05-06 20:32 | -35.17130 | 149.56940 | 12284 ft | 266 kts | 256° |
| 2026-05-06 20:32 | -35.17759 | 149.54823 | 11888 ft | 264 kts | 256° |
| 2026-05-06 20:32 | -35.18386 | 149.52711 | 11470 ft | 264 kts | 256° |
| 2026-05-06 20:32 | -35.19009 | 149.50609 | 11061 ft | 264 kts | 256° |
| 2026-05-06 20:33 | -35.19623 | 149.48552 | 10874 ft | 250 kts | 256° |
| 2026-05-06 20:33 | -35.20206 | 149.46614 | 10745 ft | 235 kts | 256° |
| 2026-05-06 20:33 | -35.20755 | 149.44778 | 10618 ft | 227 kts | 256° |
| 2026-05-06 20:33 | -35.21280 | 149.42995 | 10270 ft | 227 kts | 257° |
| 2026-05-06 20:34 | -35.21819 | 149.41136 | 9513 ft | 238 kts | 257° |
| 2026-05-06 20:34 | -35.22378 | 149.39202 | 8815 ft | 243 kts | 255° |
| 2026-05-06 20:34 | -35.22949 | 149.37261 | 8319 ft | 241 kts | 255° |
| 2026-05-06 20:34 | -35.23516 | 149.35343 | 8039 ft | 239 kts | 254° |
| 2026-05-06 20:35 | -35.24140 | 149.33450 | 7991 ft | 243 kts | 247° |
| 2026-05-06 20:35 | -35.25321 | 149.31924 | 8005 ft | 257 kts | 221° |
| 2026-05-06 20:35 | -35.26932 | 149.30893 | 7989 ft | 263 kts | 213° |
| 2026-05-06 20:35 | -35.28604 | 149.29980 | 7781 ft | 263 kts | 212° |
| 2026-05-06 20:36 | -35.30250 | 149.29096 | 7345 ft | 261 kts | 212° |
| 2026-05-06 20:36 | -35.31907 | 149.28210 | 6892 ft | 258 kts | 212° |
| 2026-05-06 20:36 | -35.33542 | 149.27326 | 6448 ft | 255 kts | 213° |
| 2026-05-06 20:36 | -35.35155 | 149.26446 | 6000 ft | 252 kts | 212° |
| 2026-05-06 20:37 | -35.36768 | 149.25603 | 5508 ft | 254 kts | 206° |
| 2026-05-06 20:37 | -35.38558 | 149.25351 | 5068 ft | 265 kts | 186° |
| 2026-05-06 20:37 | -35.40371 | 149.25486 | 4751 ft | 263 kts | 182° |
| 2026-05-06 20:37 | -35.42195 | 149.25606 | 4700 ft | 258 kts | 183° |
| 2026-05-06 20:38 | -35.43915 | 149.25730 | 4694 ft | 237 kts | 182° |
| 2026-05-06 20:38 | -35.45493 | 149.25850 | 4690 ft | 218 kts | 183° |
| 2026-05-06 20:38 | -35.46950 | 149.25983 | 4693 ft | 201 kts | 182° |
| 2026-05-06 20:38 | -35.48306 | 149.26128 | 4706 ft | 193 kts | 182° |
| 2026-05-06 20:39 | -35.49610 | 149.26272 | 4717 ft | 181 kts | 182° |
| 2026-05-06 20:39 | -35.50819 | 149.26399 | 4691 ft | 169 kts | 188° |
| 2026-05-06 20:39 | -35.51838 | 149.25960 | 4716 ft | 151 kts | 228° |
| 2026-05-06 20:39 | -35.52244 | 149.24855 | 4711 ft | 143 kts | 271° |
| 2026-05-06 20:40 | -35.51858 | 149.23736 | 4725 ft | 148 kts | 303° |
| 2026-05-06 20:40 | -35.51127 | 149.22834 | 4709 ft | 151 kts | 310° |
| 2026-05-06 20:40 | -35.50310 | 149.21984 | 4717 ft | 155 kts | 313° |
| 2026-05-06 20:40 | -35.49490 | 149.21140 | 4714 ft | 153 kts | 313° |
| 2026-05-06 20:41 | -35.48678 | 149.20310 | 4705 ft | 152 kts | 313° |
| 2026-05-06 20:41 | -35.47774 | 149.19610 | 4706 ft | 162 kts | 335° |
| 2026-05-06 20:41 | -35.46642 | 149.19450 | 4732 ft | 170 kts | 351° |
| 2026-05-06 20:41 | -35.45455 | 149.19460 | 4722 ft | 170 kts | 350° |
| 2026-05-06 20:42 | -35.44295 | 149.19451 | 4564 ft | 165 kts | 351° |
| 2026-05-06 20:42 | -35.43154 | 149.19445 | 4308 ft | 163 kts | 352° |
| 2026-05-06 20:42 | -35.42038 | 149.19445 | 4056 ft | 156 kts | 352° |
| 2026-05-06 20:42 | -35.40986 | 149.19445 | 3839 ft | 150 kts | 351° |
| 2026-05-06 20:43 | -35.39946 | 149.19443 | 3618 ft | 148 kts | 352° |
| 2026-05-06 20:43 | -35.38920 | 149.19440 | 3394 ft | 146 kts | 354° |
| 2026-05-06 20:43 | -35.37936 | 149.19431 | 3189 ft | 142 kts | 354° |
| 2026-05-06 20:43 | -35.36976 | 149.19448 | 3035 ft | 135 kts | 354° |
| 2026-05-06 20:44 | -35.36061 | 149.19489 | 2789 ft | 127 kts | 352° |
| 2026-05-06 20:44 | -35.35188 | 149.19451 | 2652 ft | 126 kts | 354° |
| 2026-05-06 20:44 | -35.34312 | 149.19458 | 2447 ft | 124 kts | 355° |
| 2026-05-06 20:44 | -35.33467 | 149.19460 | 2263 ft | 120 kts | 353° |
| 2026-05-06 20:45 | -35.32617 | 149.19453 | 2118 ft | 124 kts | 354° |
| 2026-05-06 20:45 | -35.31752 | 149.19453 | 1944 ft | 122 kts | 353° |
| 2026-05-06 20:45 | -35.30930 | 149.19448 | 1884 ft | 113 kts | 359° |
| 2026-05-06 20:45 | -35.30276 | 149.19443 | 1880 ft | 76 kts | 0° |
| 2026-05-06 20:46 | -35.29876 | 149.19443 | 1882 ft | 40 kts | 360° |
| 2026-05-06 20:46 | -35.29685 | 149.19443 | 1879 ft | 15 kts | 358° |
| 2026-05-06 20:46 | -35.29603 | 149.19398 | 1884 ft | 12 kts | 308° |
| 2026-05-06 20:46 | -35.29589 | 149.19301 | 1883 ft | 12 kts | 260° |
| 2026-05-06 20:47 | -35.29651 | 149.19240 | 1882 ft | 15 kts | 187° |
| 2026-05-06 20:47 | -35.29783 | 149.19235 | 1881 ft | 22 kts | 182° |
| 2026-05-06 20:47 | -35.29922 | 149.19236 | 1881 ft | 21 kts | 178° |
| 2026-05-06 20:47 | -35.30068 | 149.19240 | 1880 ft | 22 kts | 179° |
| 2026-05-06 20:48 | -35.30225 | 149.19242 | 1881 ft | 21 kts | 179° |
| 2026-05-06 20:48 | -35.30373 | 149.19243 | 1882 ft | 21 kts | 180° |
| 2026-05-06 20:48 | -35.30506 | 149.19242 | 1883 ft | 16 kts | 181° |
| 2026-05-06 20:48 | -35.30632 | 149.19239 | 1885 ft | 20 kts | 181° |
| 2026-05-06 20:49 | -35.30735 | 149.19235 | 1884 ft | 1 kts | 181° |
| 2026-05-06 20:49 | -35.30766 | 149.19236 | 1881 ft | 7 kts | 175° |
| 2026-05-06 20:49 | -35.30836 | 149.19241 | 1881 ft | 10 kts | 179° |
| 2026-05-06 20:49 | -35.30879 | 149.19231 | 1878 ft | 4 kts | 218° |
| 2026-05-06 20:50 | -35.30882 | 149.19210 | 1881 ft | 2 kts | 275° |
| 2026-05-06 20:50 | -35.30871 | 149.19181 | 1877 ft | 6 kts | 294° |
| 2026-05-06 20:50 | -35.30863 | 149.19159 | 1877 ft | 0 kts | 291° |
| 2026-05-06 20:50 | -35.30862 | 149.19154 | 1877 ft | 0 kts | 291° |